Terminal Aerodrome Forecast
Issued by NWS

Home | Current Version | Previous Version | Text Only | Print | Product List | Glossary Off
Versions: 1 2 3 4 5 6 7 8 9 10 11 12 13 14 15 16 17

000
FTUS43 KABR 211730
TAFPIR
TAF
KPIR 211730Z 2118/2218 18006KT P6SM FEW250
     FM220700 13008KT P6SM SKC WS020/21035KT
     FM221000 14007KT P6SM SKC
     FM221600 17014KT P6SM SKC=

USA.gov is the U.S. government's official web portal to all federal, state and local government web resources and services.